Elko, SC

11:12 AM EST on March 06, 2015 (GMT -0500)
KSCELKO2 | Change Station
CLOSE
Current Station
Personal Weather Station
Location: Elko, SC
Elevation: 313 ft
Nearby Weather Stations

Elev 313 ft 33.40 °N, 81.34 °W | Updated 24 seconds ago

Overcast
Overcast
40.8 °F
Feels Like 41 °F
N
3.0
Wind Variable Wind from NNE
Gusts 13.0 mph

Today
High -- | Low -- °F
--% Chance of Precip.
Yesterday
High -- | Low -- °F
Precip. -- in
6:47 AM 6:26 PM
Full, 99% visible
Pressure 30.46 in
Visibility 10.0 miles
Clouds Scattered Clouds 3000 ft
Scattered Clouds 4600 ft
Windchill 41 °F
Dew Point 32 °F
Humidity 70%
Rainfall in
Snow Depth Not available.
UV 2.8 out of 12
Pollen 9.30 out of 12
Air Quality Not available.
Flu Activity Not available.
METAR KAIK 061615Z AUTO 02008KT 330V030 10SM SCT030 SCT046 05/M03 A3046 RMK AO2

More Conditions Fewer Conditions

Pressure 30.46 in
Visibility 10.0 miles
Clouds Scattered Clouds 3000 ft
Scattered Clouds 4600 ft
Windchill 41 °F
Dew Point 32 °F
Humidity 70%
Rainfall in
Snow Depth Not available.
UV 2.8 out of 12
Pollen 9.30 out of 12
Air Quality Not available.
Flu Activity Not available.
METAR KAIK 061615Z AUTO 02008KT 330V030 10SM SCT030 SCT046 05/M03 A3046 RMK AO2

More Conditions Fewer Conditions

10-Day Weather Forecast

Almanac

Astronomy

Mar. 06, 2015 Rise Set
Actual Time
Civil Twilight
Nautical Twilight
Astronomical Twilight
Moon
Length of Visible Light
Length of Day
Tomorrow will be .
, % of the Moon is Illuminated

Today's Extremes

State Highs State Lows

Community

WunderPhotos

Upload Photos

1,803,327 photos uploaded!

WunderBlogs® & News

Nearby

Air Quality

  Air Quality AQ Index Pollutant
Not available.

Snow Depth

Station Depth Elevation

Earthquake Activity

City Distance Mag. Time & Date
Minimum magnitude displayed is 2.5.

Coastal Water Temperatures

Place Temperature

Nearby Weather Stations